sensor_id;sensor_type;location;lat;lon;timestamp;temperature;humidity
7002;DHT22;3541;53.230;10.518;2023-08-07T00:00:53;16.60;99.90
7002;DHT22;3541;53.230;10.518;2023-08-07T00:03:20;16.60;99.90
7002;DHT22;3541;53.230;10.518;2023-08-07T00:05:47;16.40;99.90
7002;DHT22;3541;53.230;10.518;2023-08-07T00:08:14;16.50;99.90
7002;DHT22;3541;53.230;10.518;2023-08-07T00:10:40;16.50;99.90
7002;DHT22;3541;53.230;10.518;2023-08-07T00:13:08;16.50;99.90
7002;DHT22;3541;53.230;10.518;2023-08-07T00:15:37;16.60;99.90
7002;DHT22;3541;53.230;10.518;2023-08-07T00:18:04;16.50;99.90
7002;DHT22;3541;53.230;10.518;2023-08-07T00:20:30;16.50;99.90
7002;DHT22;3541;53.230;10.518;2023-08-07T00:22:57;16.50;99.90
7002;DHT22;3541;53.230;10.518;2023-08-07T00:25:24;16.50;99.90
7002;DHT22;3541;53.230;10.518;2023-08-07T00:27:50;16.50;99.90
7002;DHT22;3541;53.230;10.518;2023-08-07T00:30:18;16.40;99.90
7002;DHT22;3541;53.230;10.518;2023-08-07T00:32:45;16.40;99.90
7002;DHT22;3541;53.230;10.518;2023-08-07T00:35:11;16.50;99.90
7002;DHT22;3541;53.230;10.518;2023-08-07T00:37:38;16.50;99.90
7002;DHT22;3541;53.230;10.518;2023-08-07T00:40:06;16.40;99.90
7002;DHT22;3541;53.230;10.518;2023-08-07T00:42:32;16.40;99.90
7002;DHT22;3541;53.230;10.518;2023-08-07T00:44:59;16.30;99.90
7002;DHT22;3541;53.230;10.518;2023-08-07T00:47:28;16.40;99.90
7002;DHT22;3541;53.230;10.518;2023-08-07T00:49:56;16.40;99.90
7002;DHT22;3541;53.230;10.518;2023-08-07T00:52:23;16.40;99.90
7002;DHT22;3541;53.230;10.518;2023-08-07T00:54:49;16.30;99.90
7002;DHT22;3541;53.230;10.518;2023-08-07T00:57:17;16.30;99.90
7002;DHT22;3541;53.230;10.518;2023-08-07T00:59:48;16.30;99.90
7002;DHT22;3541;53.230;10.518;2023-08-07T01:02:15;16.20;99.90
7002;DHT22;3541;53.230;10.518;2023-08-07T01:04:43;16.30;99.90
7002;DHT22;3541;53.230;10.518;2023-08-07T01:07:10;16.30;99.90
7002;DHT22;3541;53.230;10.518;2023-08-07T01:09:37;16.30;99.90
7002;DHT22;3541;53.230;10.518;2023-08-07T01:12:10;16.30;99.90
7002;DHT22;3541;53.230;10.518;2023-08-07T01:14:42;16.30;99.90
7002;DHT22;3541;53.230;10.518;2023-08-07T01:17:14;16.30;99.90
7002;DHT22;3541;53.230;10.518;2023-08-07T01:19:43;16.20;99.90
7002;DHT22;3541;53.230;10.518;2023-08-07T01:22:13;16.20;99.90
7002;DHT22;3541;53.230;10.518;2023-08-07T01:24:42;16.20;99.90
7002;DHT22;3541;53.230;10.518;2023-08-07T01:27:19;16.20;99.90
7002;DHT22;3541;53.230;10.518;2023-08-07T01:29:52;16.10;99.90
7002;DHT22;3541;53.230;10.518;2023-08-07T01:32:26;16.10;99.90
7002;DHT22;3541;53.230;10.518;2023-08-07T01:34:54;16.00;99.90
7002;DHT22;3541;53.230;10.518;2023-08-07T01:37:26;15.90;99.90
7002;DHT22;3541;53.230;10.518;2023-08-07T01:39:55;15.90;99.90
7002;DHT22;3541;53.230;10.518;2023-08-07T01:42:23;15.80;99.90
7002;DHT22;3541;53.230;10.518;2023-08-07T01:44:50;15.80;99.90
7002;DHT22;3541;53.230;10.518;2023-08-07T01:47:16;15.90;99.90
7002;DHT22;3541;53.230;10.518;2023-08-07T01:49:43;15.90;99.90
7002;DHT22;3541;53.230;10.518;2023-08-07T01:52:09;15.90;99.90
7002;DHT22;3541;53.230;10.518;2023-08-07T01:54:39;15.90;99.90
7002;DHT22;3541;53.230;10.518;2023-08-07T01:57:06;15.80;99.90
7002;DHT22;3541;53.230;10.518;2023-08-07T01:59:32;15.80;99.90
7002;DHT22;3541;53.230;10.518;2023-08-07T02:01:59;15.80;99.90
7002;DHT22;3541;53.230;10.518;2023-08-07T02:04:26;15.90;99.90
7002;DHT22;3541;53.230;10.518;2023-08-07T02:06:52;15.80;99.90
7002;DHT22;3541;53.230;10.518;2023-08-07T02:09:19;15.80;99.90
7002;DHT22;3541;53.230;10.518;2023-08-07T02:11:47;15.80;99.90
7002;DHT22;3541;53.230;10.518;2023-08-07T02:14:14;15.80;99.90
7002;DHT22;3541;53.230;10.518;2023-08-07T02:16:40;15.60;99.90
7002;DHT22;3541;53.230;10.518;2023-08-07T02:19:07;15.70;99.90
7002;DHT22;3541;53.230;10.518;2023-08-07T02:21:33;15.80;99.90
7002;DHT22;3541;53.230;10.518;2023-08-07T02:24:00;15.80;99.90
7002;DHT22;3541;53.230;10.518;2023-08-07T02:26:27;15.80;99.90
7002;DHT22;3541;53.230;10.518;2023-08-07T02:28:54;15.80;99.90
7002;DHT22;3541;53.230;10.518;2023-08-07T02:31:21;15.80;99.90
7002;DHT22;3541;53.230;10.518;2023-08-07T02:33:48;15.80;99.90
7002;DHT22;3541;53.230;10.518;2023-08-07T02:36:14;15.70;99.90
7002;DHT22;3541;53.230;10.518;2023-08-07T02:38:41;15.80;99.90
7002;DHT22;3541;53.230;10.518;2023-08-07T02:41:07;15.80;99.90
7002;DHT22;3541;53.230;10.518;2023-08-07T02:43:34;15.80;99.90
7002;DHT22;3541;53.230;10.518;2023-08-07T02:46:02;15.80;99.90
7002;DHT22;3541;53.230;10.518;2023-08-07T02:48:28;15.80;99.90
7002;DHT22;3541;53.230;10.518;2023-08-07T02:50:55;15.70;99.90
7002;DHT22;3541;53.230;10.518;2023-08-07T02:53:22;15.70;99.90
7002;DHT22;3541;53.230;10.518;2023-08-07T02:55:48;15.70;99.90
7002;DHT22;3541;53.230;10.518;2023-08-07T02:58:15;15.70;99.90
7002;DHT22;3541;53.230;10.518;2023-08-07T03:00:41;15.60;99.90
7002;DHT22;3541;53.230;10.518;2023-08-07T03:03:10;15.70;99.90
7002;DHT22;3541;53.230;10.518;2023-08-07T03:05:36;15.70;99.90
7002;DHT22;3541;53.230;10.518;2023-08-07T03:08:03;15.70;99.90
7002;DHT22;3541;53.230;10.518;2023-08-07T03:10:30;15.70;99.90
7002;DHT22;3541;53.230;10.518;2023-08-07T03:12:56;15.60;99.90
7002;DHT22;3541;53.230;10.518;2023-08-07T03:15:23;15.70;99.90
7002;DHT22;3541;53.230;10.518;2023-08-07T03:17:50;15.70;99.90
7002;DHT22;3541;53.230;10.518;2023-08-07T03:20:18;15.60;99.90
7002;DHT22;3541;53.230;10.518;2023-08-07T03:22:44;15.60;99.90
7002;DHT22;3541;53.230;10.518;2023-08-07T03:25:11;15.60;99.90
7002;DHT22;3541;53.230;10.518;2023-08-07T03:27:37;15.60;99.90
7002;DHT22;3541;53.230;10.518;2023-08-07T03:30:05;15.60;99.90
7002;DHT22;3541;53.230;10.518;2023-08-07T03:32:32;15.60;99.90
7002;DHT22;3541;53.230;10.518;2023-08-07T03:34:58;15.60;99.90
7002;DHT22;3541;53.230;10.518;2023-08-07T03:37:26;15.60;99.90
7002;DHT22;3541;53.230;10.518;2023-08-07T03:39:53;15.60;99.90
7002;DHT22;3541;53.230;10.518;2023-08-07T03:42:19;15.70;99.90
7002;DHT22;3541;53.230;10.518;2023-08-07T03:44:46;15.60;99.90
7002;DHT22;3541;53.230;10.518;2023-08-07T03:47:13;15.60;99.90
7002;DHT22;3541;53.230;10.518;2023-08-07T03:49:39;15.60;99.90
7002;DHT22;3541;53.230;10.518;2023-08-07T03:52:07;15.60;99.90
7002;DHT22;3541;53.230;10.518;2023-08-07T03:54:35;15.60;99.90
7002;DHT22;3541;53.230;10.518;2023-08-07T03:57:01;15.70;99.90
7002;DHT22;3541;53.230;10.518;2023-08-07T03:59:28;15.60;99.90
7002;DHT22;3541;53.230;10.518;2023-08-07T04:01:55;15.60;99.90
7002;DHT22;3541;53.230;10.518;2023-08-07T04:04:21;15.60;99.90
7002;DHT22;3541;53.230;10.518;2023-08-07T04:06:48;15.50;99.90
7002;DHT22;3541;53.230;10.518;2023-08-07T04:09:14;15.50;99.90
7002;DHT22;3541;53.230;10.518;2023-08-07T04:11:43;15.50;99.90
7002;DHT22;3541;53.230;10.518;2023-08-07T04:14:10;15.50;99.90
7002;DHT22;3541;53.230;10.518;2023-08-07T04:16:37;15.60;99.90
7002;DHT22;3541;53.230;10.518;2023-08-07T04:19:04;15.60;99.90
7002;DHT22;3541;53.230;10.518;2023-08-07T04:21:32;15.60;99.90
7002;DHT22;3541;53.230;10.518;2023-08-07T04:23:58;15.60;99.90
7002;DHT22;3541;53.230;10.518;2023-08-07T04:26:26;15.60;99.90
7002;DHT22;3541;53.230;10.518;2023-08-07T04:28:53;15.60;99.90
7002;DHT22;3541;53.230;10.518;2023-08-07T04:31:20;15.60;99.90
7002;DHT22;3541;53.230;10.518;2023-08-07T04:33:47;15.70;99.90
7002;DHT22;3541;53.230;10.518;2023-08-07T04:36:13;15.70;99.90
7002;DHT22;3541;53.230;10.518;2023-08-07T04:38:40;15.70;99.90
7002;DHT22;3541;53.230;10.518;2023-08-07T04:41:07;15.70;99.90
7002;DHT22;3541;53.230;10.518;2023-08-07T04:43:33;15.70;99.90
7002;DHT22;3541;53.230;10.518;2023-08-07T04:46:01;15.70;99.90
7002;DHT22;3541;53.230;10.518;2023-08-07T04:48:28;15.60;99.90
7002;DHT22;3541;53.230;10.518;2023-08-07T04:50:54;15.60;99.90
7002;DHT22;3541;53.230;10.518;2023-08-07T04:53:23;15.60;99.90
7002;DHT22;3541;53.230;10.518;2023-08-07T04:55:49;15.60;99.90
7002;DHT22;3541;53.230;10.518;2023-08-07T04:58:16;15.50;99.90
7002;DHT22;3541;53.230;10.518;2023-08-07T05:00:42;15.60;99.90
7002;DHT22;3541;53.230;10.518;2023-08-07T05:03:10;15.60;99.90
7002;DHT22;3541;53.230;10.518;2023-08-07T05:05:37;15.50;99.90
7002;DHT22;3541;53.230;10.518;2023-08-07T05:08:04;15.60;99.90
7002;DHT22;3541;53.230;10.518;2023-08-07T05:10:31;15.60;99.90
7002;DHT22;3541;53.230;10.518;2023-08-07T05:12:57;15.70;99.90
7002;DHT22;3541;53.230;10.518;2023-08-07T05:15:25;15.60;99.90
7002;DHT22;3541;53.230;10.518;2023-08-07T05:17:53;15.70;99.90
7002;DHT22;3541;53.230;10.518;2023-08-07T05:20:21;15.70;99.90
7002;DHT22;3541;53.230;10.518;2023-08-07T05:22:48;15.70;99.90
7002;DHT22;3541;53.230;10.518;2023-08-07T05:25:15;15.70;99.90
7002;DHT22;3541;53.230;10.518;2023-08-07T05:27:42;15.70;99.90
7002;DHT22;3541;53.230;10.518;2023-08-07T05:30:09;15.70;99.90
7002;DHT22;3541;53.230;10.518;2023-08-07T05:32:36;15.70;99.90
7002;DHT22;3541;53.230;10.518;2023-08-07T05:35:04;15.60;99.90
7002;DHT22;3541;53.230;10.518;2023-08-07T05:37:33;15.70;99.90
7002;DHT22;3541;53.230;10.518;2023-08-07T05:40:01;15.70;99.90
7002;DHT22;3541;53.230;10.518;2023-08-07T05:42:27;15.70;99.90
7002;DHT22;3541;53.230;10.518;2023-08-07T05:44:54;15.70;99.90
7002;DHT22;3541;53.230;10.518;2023-08-07T05:47:21;15.60;99.90
7002;DHT22;3541;53.230;10.518;2023-08-07T05:49:47;15.70;99.90
7002;DHT22;3541;53.230;10.518;2023-08-07T05:52:14;15.70;99.90
7002;DHT22;3541;53.230;10.518;2023-08-07T05:54:42;15.70;99.90
7002;DHT22;3541;53.230;10.518;2023-08-07T05:57:09;15.80;99.90
7002;DHT22;3541;53.230;10.518;2023-08-07T05:59:36;15.70;99.90
7002;DHT22;3541;53.230;10.518;2023-08-07T06:02:03;15.80;99.90
7002;DHT22;3541;53.230;10.518;2023-08-07T06:04:30;15.80;99.90
7002;DHT22;3541;53.230;10.518;2023-08-07T06:06:57;15.80;99.90
7002;DHT22;3541;53.230;10.518;2023-08-07T06:09:23;15.80;99.90
7002;DHT22;3541;53.230;10.518;2023-08-07T06:11:51;15.80;99.90
7002;DHT22;3541;53.230;10.518;2023-08-07T06:14:18;15.90;99.90
7002;DHT22;3541;53.230;10.518;2023-08-07T06:16:44;15.90;99.90
7002;DHT22;3541;53.230;10.518;2023-08-07T06:19:11;15.90;99.90
7002;DHT22;3541;53.230;10.518;2023-08-07T06:21:38;16.00;99.90
7002;DHT22;3541;53.230;10.518;2023-08-07T06:24:04;15.90;99.90
7002;DHT22;3541;53.230;10.518;2023-08-07T06:26:32;15.90;99.90
7002;DHT22;3541;53.230;10.518;2023-08-07T06:28:59;15.90;99.90
7002;DHT22;3541;53.230;10.518;2023-08-07T06:31:26;16.00;99.90
7002;DHT22;3541;53.230;10.518;2023-08-07T06:33:53;16.00;99.90
7002;DHT22;3541;53.230;10.518;2023-08-07T06:36:19;16.00;99.90
7002;DHT22;3541;53.230;10.518;2023-08-07T06:38:46;16.00;99.90
7002;DHT22;3541;53.230;10.518;2023-08-07T06:41:12;16.00;99.90
7002;DHT22;3541;53.230;10.518;2023-08-07T06:43:39;16.00;99.90
7002;DHT22;3541;53.230;10.518;2023-08-07T06:46:07;16.10;99.90
7002;DHT22;3541;53.230;10.518;2023-08-07T06:48:33;16.10;99.90
7002;DHT22;3541;53.230;10.518;2023-08-07T06:51:00;16.10;99.90
7002;DHT22;3541;53.230;10.518;2023-08-07T06:53:27;16.10;99.90
7002;DHT22;3541;53.230;10.518;2023-08-07T06:55:53;16.10;99.90
7002;DHT22;3541;53.230;10.518;2023-08-07T06:58:20;16.10;99.90
7002;DHT22;3541;53.230;10.518;2023-08-07T07:00:46;16.20;99.90
7002;DHT22;3541;53.230;10.518;2023-08-07T07:03:14;16.20;99.90
7002;DHT22;3541;53.230;10.518;2023-08-07T07:05:41;16.20;99.90
7002;DHT22;3541;53.230;10.518;2023-08-07T07:08:08;16.20;99.90
7002;DHT22;3541;53.230;10.518;2023-08-07T07:10:34;16.20;99.90
7002;DHT22;3541;53.230;10.518;2023-08-07T07:13:01;16.20;99.90
7002;DHT22;3541;53.230;10.518;2023-08-07T07:15:28;16.30;99.90
7002;DHT22;3541;53.230;10.518;2023-08-07T07:17:54;16.40;99.90
7002;DHT22;3541;53.230;10.518;2023-08-07T07:20:22;16.40;99.90
7002;DHT22;3541;53.230;10.518;2023-08-07T07:22:49;16.40;99.90
7002;DHT22;3541;53.230;10.518;2023-08-07T07:25:15;16.50;99.90
7002;DHT22;3541;53.230;10.518;2023-08-07T07:27:42;16.40;99.90
7002;DHT22;3541;53.230;10.518;2023-08-07T07:30:10;16.40;99.90
7002;DHT22;3541;53.230;10.518;2023-08-07T07:32:36;16.50;99.90
7002;DHT22;3541;53.230;10.518;2023-08-07T07:35:03;16.50;99.90
7002;DHT22;3541;53.230;10.518;2023-08-07T07:37:31;16.50;99.90
7002;DHT22;3541;53.230;10.518;2023-08-07T07:39:58;16.50;99.90
7002;DHT22;3541;53.230;10.518;2023-08-07T07:42:25;16.50;99.90
7002;DHT22;3541;53.230;10.518;2023-08-07T07:44:51;16.50;99.90
7002;DHT22;3541;53.230;10.518;2023-08-07T07:47:18;16.50;99.90
7002;DHT22;3541;53.230;10.518;2023-08-07T07:49:46;16.50;99.90
7002;DHT22;3541;53.230;10.518;2023-08-07T07:52:13;16.40;99.90
7002;DHT22;3541;53.230;10.518;2023-08-07T07:54:41;16.30;99.90
7002;DHT22;3541;53.230;10.518;2023-08-07T07:57:07;16.30;99.90
7002;DHT22;3541;53.230;10.518;2023-08-07T07:59:34;16.30;99.90
7002;DHT22;3541;53.230;10.518;2023-08-07T08:02:00;16.30;99.90
7002;DHT22;3541;53.230;10.518;2023-08-07T08:04:27;16.30;99.90
7002;DHT22;3541;53.230;10.518;2023-08-07T08:06:54;16.30;99.90
7002;DHT22;3541;53.230;10.518;2023-08-07T08:09:20;16.40;99.90
7002;DHT22;3541;53.230;10.518;2023-08-07T08:11:48;16.40;99.90
7002;DHT22;3541;53.230;10.518;2023-08-07T08:14:15;16.40;99.90
7002;DHT22;3541;53.230;10.518;2023-08-07T08:16:41;16.40;99.90
7002;DHT22;3541;53.230;10.518;2023-08-07T08:19:08;16.40;99.90
7002;DHT22;3541;53.230;10.518;2023-08-07T08:21:35;16.30;99.90
7002;DHT22;3541;53.230;10.518;2023-08-07T08:24:01;16.20;99.90
7002;DHT22;3541;53.230;10.518;2023-08-07T08:26:28;16.10;99.90
7002;DHT22;3541;53.230;10.518;2023-08-07T08:28:56;16.00;99.90
7002;DHT22;3541;53.230;10.518;2023-08-07T08:31:23;15.70;99.90
7002;DHT22;3541;53.230;10.518;2023-08-07T08:33:49;15.50;99.90
7002;DHT22;3541;53.230;10.518;2023-08-07T08:36:16;15.50;99.90
7002;DHT22;3541;53.230;10.518;2023-08-07T08:38:43;15.60;99.90
7002;DHT22;3541;53.230;10.518;2023-08-07T08:41:11;15.60;99.90
7002;DHT22;3541;53.230;10.518;2023-08-07T08:43:39;15.80;99.90
7002;DHT22;3541;53.230;10.518;2023-08-07T08:46:08;15.80;99.90
7002;DHT22;3541;53.230;10.518;2023-08-07T08:48:38;15.90;99.90
7002;DHT22;3541;53.230;10.518;2023-08-07T08:51:06;16.10;99.90
7002;DHT22;3541;53.230;10.518;2023-08-07T08:53:35;16.10;99.90
7002;DHT22;3541;53.230;10.518;2023-08-07T08:56:01;16.10;99.90
7002;DHT22;3541;53.230;10.518;2023-08-07T08:58:28;16.10;99.90
7002;DHT22;3541;53.230;10.518;2023-08-07T09:00:55;16.10;99.90
7002;DHT22;3541;53.230;10.518;2023-08-07T09:03:24;16.00;99.90
7002;DHT22;3541;53.230;10.518;2023-08-07T09:05:52;16.00;99.90
7002;DHT22;3541;53.230;10.518;2023-08-07T09:08:20;16.10;99.90
7002;DHT22;3541;53.230;10.518;2023-08-07T09:10:47;16.10;99.90
7002;DHT22;3541;53.230;10.518;2023-08-07T09:13:14;16.20;99.90
7002;DHT22;3541;53.230;10.518;2023-08-07T09:15:43;16.40;99.90
7002;DHT22;3541;53.230;10.518;2023-08-07T09:18:15;16.50;99.90
7002;DHT22;3541;53.230;10.518;2023-08-07T09:20:44;16.60;99.90
7002;DHT22;3541;53.230;10.518;2023-08-07T09:23:11;16.60;99.90
7002;DHT22;3541;53.230;10.518;2023-08-07T09:25:38;16.70;99.90
7002;DHT22;3541;53.230;10.518;2023-08-07T09:28:05;16.80;99.90
7002;DHT22;3541;53.230;10.518;2023-08-07T09:30:34;17.00;99.90
7002;DHT22;3541;53.230;10.518;2023-08-07T09:33:02;17.20;99.90
7002;DHT22;3541;53.230;10.518;2023-08-07T09:35:30;17.20;99.90
7002;DHT22;3541;53.230;10.518;2023-08-07T09:37:59;17.30;99.90
7002;DHT22;3541;53.230;10.518;2023-08-07T09:40:25;17.30;99.90
7002;DHT22;3541;53.230;10.518;2023-08-07T09:42:53;17.40;99.90
7002;DHT22;3541;53.230;10.518;2023-08-07T09:45:21;17.50;99.90
7002;DHT22;3541;53.230;10.518;2023-08-07T09:47:57;17.50;99.90
7002;DHT22;3541;53.230;10.518;2023-08-07T09:50:24;17.40;99.90
7002;DHT22;3541;53.230;10.518;2023-08-07T09:52:50;17.40;99.90
7002;DHT22;3541;53.230;10.518;2023-08-07T09:55:18;17.40;99.90
7002;DHT22;3541;53.230;10.518;2023-08-07T09:57:45;17.40;99.90
7002;DHT22;3541;53.230;10.518;2023-08-07T10:00:12;17.40;99.90
7002;DHT22;3541;53.230;10.518;2023-08-07T10:02:40;17.50;99.90
7002;DHT22;3541;53.230;10.518;2023-08-07T10:05:07;17.70;99.90
7002;DHT22;3541;53.230;10.518;2023-08-07T10:07:36;17.70;99.90
7002;DHT22;3541;53.230;10.518;2023-08-07T10:10:04;17.80;99.90
7002;DHT22;3541;53.230;10.518;2023-08-07T10:12:33;17.70;99.90
7002;DHT22;3541;53.230;10.518;2023-08-07T10:15:00;17.60;99.90
7002;DHT22;3541;53.230;10.518;2023-08-07T10:17:27;17.60;99.90
7002;DHT22;3541;53.230;10.518;2023-08-07T10:19:54;17.70;99.90
7002;DHT22;3541;53.230;10.518;2023-08-07T10:22:23;17.80;99.90
7002;DHT22;3541;53.230;10.518;2023-08-07T10:24:53;17.90;99.90
7002;DHT22;3541;53.230;10.518;2023-08-07T10:27:22;18.00;99.90
7002;DHT22;3541;53.230;10.518;2023-08-07T10:29:51;17.90;99.90
7002;DHT22;3541;53.230;10.518;2023-08-07T10:32:20;17.80;99.90
7002;DHT22;3541;53.230;10.518;2023-08-07T10:34:50;17.70;99.90
7002;DHT22;3541;53.230;10.518;2023-08-07T10:37:32;17.80;99.90
7002;DHT22;3541;53.230;10.518;2023-08-07T10:40:02;17.80;99.90
7002;DHT22;3541;53.230;10.518;2023-08-07T10:42:33;17.70;99.90
7002;DHT22;3541;53.230;10.518;2023-08-07T10:45:18;17.50;99.90
7002;DHT22;3541;53.230;10.518;2023-08-07T10:47:56;17.30;99.90
7002;DHT22;3541;53.230;10.518;2023-08-07T10:50:28;17.10;99.90
7002;DHT22;3541;53.230;10.518;2023-08-07T10:52:55;17.00;99.90
7002;DHT22;3541;53.230;10.518;2023-08-07T10:55:22;16.80;99.90
7002;DHT22;3541;53.230;10.518;2023-08-07T10:57:50;16.60;99.90
7002;DHT22;3541;53.230;10.518;2023-08-07T11:00:25;16.70;99.90
7002;DHT22;3541;53.230;10.518;2023-08-07T11:02:52;16.70;99.90
7002;DHT22;3541;53.230;10.518;2023-08-07T11:05:18;17.00;99.90
7002;DHT22;3541;53.230;10.518;2023-08-07T11:07:45;17.10;99.90
7002;DHT22;3541;53.230;10.518;2023-08-07T11:10:13;17.40;99.90
7002;DHT22;3541;53.230;10.518;2023-08-07T11:12:41;17.60;99.90
7002;DHT22;3541;53.230;10.518;2023-08-07T11:15:12;17.70;99.90
7002;DHT22;3541;53.230;10.518;2023-08-07T11:17:40;17.90;99.90
7002;DHT22;3541;53.230;10.518;2023-08-07T11:20:09;18.00;99.90
7002;DHT22;3541;53.230;10.518;2023-08-07T11:22:38;17.80;99.90
7002;DHT22;3541;53.230;10.518;2023-08-07T11:25:05;17.80;99.90
7002;DHT22;3541;53.230;10.518;2023-08-07T11:27:36;17.90;99.90
7002;DHT22;3541;53.230;10.518;2023-08-07T11:30:04;18.00;99.90
7002;DHT22;3541;53.230;10.518;2023-08-07T11:32:31;18.10;99.90
7002;DHT22;3541;53.230;10.518;2023-08-07T11:34:59;18.10;99.90
7002;DHT22;3541;53.230;10.518;2023-08-07T11:37:28;18.10;99.90
7002;DHT22;3541;53.230;10.518;2023-08-07T11:40:00;18.10;99.90
7002;DHT22;3541;53.230;10.518;2023-08-07T11:42:28;18.20;99.90
7002;DHT22;3541;53.230;10.518;2023-08-07T11:44:54;18.20;99.90
7002;DHT22;3541;53.230;10.518;2023-08-07T11:47:21;18.20;99.90
7002;DHT22;3541;53.230;10.518;2023-08-07T11:49:48;18.40;99.90
7002;DHT22;3541;53.230;10.518;2023-08-07T11:52:16;18.60;99.90
7002;DHT22;3541;53.230;10.518;2023-08-07T11:54:46;18.60;99.90
7002;DHT22;3541;53.230;10.518;2023-08-07T11:57:17;18.50;99.90
7002;DHT22;3541;53.230;10.518;2023-08-07T11:59:48;18.30;99.90
7002;DHT22;3541;53.230;10.518;2023-08-07T12:02:15;18.10;99.90
7002;DHT22;3541;53.230;10.518;2023-08-07T12:04:42;18.00;99.90
7002;DHT22;3541;53.230;10.518;2023-08-07T12:07:09;17.90;99.90
7002;DHT22;3541;53.230;10.518;2023-08-07T12:09:37;17.70;99.90
7002;DHT22;3541;53.230;10.518;2023-08-07T12:12:06;17.70;99.90
7002;DHT22;3541;53.230;10.518;2023-08-07T12:14:33;17.80;99.90
7002;DHT22;3541;53.230;10.518;2023-08-07T12:17:01;18.10;99.90
7002;DHT22;3541;53.230;10.518;2023-08-07T12:19:36;18.10;99.90
7002;DHT22;3541;53.230;10.518;2023-08-07T12:22:05;18.00;99.90
7002;DHT22;3541;53.230;10.518;2023-08-07T12:24:32;17.70;99.90
7002;DHT22;3541;53.230;10.518;2023-08-07T12:27:00;17.50;99.90
7002;DHT22;3541;53.230;10.518;2023-08-07T12:29:26;17.40;99.90
7002;DHT22;3541;53.230;10.518;2023-08-07T12:31:54;17.30;99.90
7002;DHT22;3541;53.230;10.518;2023-08-07T12:34:21;17.40;99.90
7002;DHT22;3541;53.230;10.518;2023-08-07T12:36:48;17.60;99.90
7002;DHT22;3541;53.230;10.518;2023-08-07T12:39:14;18.00;99.90
7002;DHT22;3541;53.230;10.518;2023-08-07T12:41:41;18.30;99.90
7002;DHT22;3541;53.230;10.518;2023-08-07T12:44:09;18.40;99.90
7002;DHT22;3541;53.230;10.518;2023-08-07T12:46:35;18.50;99.90
7002;DHT22;3541;53.230;10.518;2023-08-07T12:49:03;18.40;99.90
7002;DHT22;3541;53.230;10.518;2023-08-07T12:51:30;18.20;99.90
7002;DHT22;3541;53.230;10.518;2023-08-07T12:53:56;18.10;99.90
7002;DHT22;3541;53.230;10.518;2023-08-07T12:56:23;18.10;99.90
7002;DHT22;3541;53.230;10.518;2023-08-07T12:58:49;18.30;99.90
7002;DHT22;3541;53.230;10.518;2023-08-07T13:01:18;18.40;99.90
7002;DHT22;3541;53.230;10.518;2023-08-07T13:03:44;18.20;99.90
7002;DHT22;3541;53.230;10.518;2023-08-07T13:06:11;18.10;99.90
7002;DHT22;3541;53.230;10.518;2023-08-07T13:08:37;18.00;99.90
7002;DHT22;3541;53.230;10.518;2023-08-07T13:11:04;17.90;99.90
7002;DHT22;3541;53.230;10.518;2023-08-07T13:13:30;17.90;99.90
7002;DHT22;3541;53.230;10.518;2023-08-07T13:15:57;18.10;99.90
7002;DHT22;3541;53.230;10.518;2023-08-07T13:18:25;18.40;99.90
7002;DHT22;3541;53.230;10.518;2023-08-07T13:20:52;18.70;99.90
7002;DHT22;3541;53.230;10.518;2023-08-07T13:23:18;18.60;99.90
7002;DHT22;3541;53.230;10.518;2023-08-07T13:25:45;18.80;99.90
7002;DHT22;3541;53.230;10.518;2023-08-07T13:28:12;19.00;99.90
7002;DHT22;3541;53.230;10.518;2023-08-07T13:30:39;19.20;99.90
7002;DHT22;3541;53.230;10.518;2023-08-07T13:33:06;19.20;99.90
7002;DHT22;3541;53.230;10.518;2023-08-07T13:35:34;18.80;99.90
7002;DHT22;3541;53.230;10.518;2023-08-07T13:38:01;18.60;99.90
7002;DHT22;3541;53.230;10.518;2023-08-07T13:40:30;18.40;99.90
7002;DHT22;3541;53.230;10.518;2023-08-07T13:42:57;18.40;99.90
7002;DHT22;3541;53.230;10.518;2023-08-07T13:45:22;18.30;99.90
7002;DHT22;3541;53.230;10.518;2023-08-07T13:47:49;18.20;99.90
7002;DHT22;3541;53.230;10.518;2023-08-07T13:50:15;18.30;99.90
7002;DHT22;3541;53.230;10.518;2023-08-07T13:52:43;18.30;99.90
7002;DHT22;3541;53.230;10.518;2023-08-07T13:55:10;18.10;99.90
7002;DHT22;3541;53.230;10.518;2023-08-07T13:57:36;18.10;99.90
7002;DHT22;3541;53.230;10.518;2023-08-07T14:00:04;17.80;99.90
7002;DHT22;3541;53.230;10.518;2023-08-07T14:02:31;17.70;99.90
7002;DHT22;3541;53.230;10.518;2023-08-07T14:05:00;17.40;99.90
7002;DHT22;3541;53.230;10.518;2023-08-07T14:07:26;17.20;99.90
7002;DHT22;3541;53.230;10.518;2023-08-07T14:09:54;17.10;99.90
7002;DHT22;3541;53.230;10.518;2023-08-07T14:12:21;17.20;99.90
7002;DHT22;3541;53.230;10.518;2023-08-07T14:14:48;17.20;99.90
7002;DHT22;3541;53.230;10.518;2023-08-07T14:17:14;17.20;99.90
7002;DHT22;3541;53.230;10.518;2023-08-07T14:19:41;17.40;99.90
7002;DHT22;3541;53.230;10.518;2023-08-07T14:22:08;17.70;99.90
7002;DHT22;3541;53.230;10.518;2023-08-07T14:24:35;17.80;99.90
7002;DHT22;3541;53.230;10.518;2023-08-07T14:27:04;17.90;99.90
7002;DHT22;3541;53.230;10.518;2023-08-07T14:29:30;17.60;99.90
7002;DHT22;3541;53.230;10.518;2023-08-07T14:31:57;17.70;99.90
7002;DHT22;3541;53.230;10.518;2023-08-07T14:34:23;17.80;99.90
7002;DHT22;3541;53.230;10.518;2023-08-07T14:36:50;17.90;99.90
7002;DHT22;3541;53.230;10.518;2023-08-07T14:39:17;17.80;99.90
7002;DHT22;3541;53.230;10.518;2023-08-07T14:41:44;17.60;99.90
7002;DHT22;3541;53.230;10.518;2023-08-07T14:44:12;17.60;99.90
7002;DHT22;3541;53.230;10.518;2023-08-07T14:46:39;17.50;99.90
7002;DHT22;3541;53.230;10.518;2023-08-07T14:49:05;17.30;99.90
7002;DHT22;3541;53.230;10.518;2023-08-07T14:51:32;17.50;99.90
7002;DHT22;3541;53.230;10.518;2023-08-07T14:53:58;17.80;99.90
7002;DHT22;3541;53.230;10.518;2023-08-07T14:56:25;17.70;99.90
7002;DHT22;3541;53.230;10.518;2023-08-07T14:58:52;17.60;99.90
7002;DHT22;3541;53.230;10.518;2023-08-07T15:01:20;17.40;99.90
7002;DHT22;3541;53.230;10.518;2023-08-07T15:03:46;17.50;99.90
7002;DHT22;3541;53.230;10.518;2023-08-07T15:06:13;17.50;99.90
7002;DHT22;3541;53.230;10.518;2023-08-07T15:08:40;17.40;99.90
7002;DHT22;3541;53.230;10.518;2023-08-07T15:11:06;17.20;99.90
7002;DHT22;3541;53.230;10.518;2023-08-07T15:13:33;17.10;99.90
7002;DHT22;3541;53.230;10.518;2023-08-07T15:15:59;16.90;99.90
7002;DHT22;3541;53.230;10.518;2023-08-07T15:18:27;17.00;99.90
7002;DHT22;3541;53.230;10.518;2023-08-07T15:20:54;17.20;99.90
7002;DHT22;3541;53.230;10.518;2023-08-07T15:23:22;17.40;99.90
7002;DHT22;3541;53.230;10.518;2023-08-07T15:25:49;17.50;99.90
7002;DHT22;3541;53.230;10.518;2023-08-07T15:28:15;17.40;99.90
7002;DHT22;3541;53.230;10.518;2023-08-07T15:30:46;17.40;99.90
7002;DHT22;3541;53.230;10.518;2023-08-07T15:33:14;17.30;99.90
7002;DHT22;3541;53.230;10.518;2023-08-07T15:35:42;17.30;99.90
7002;DHT22;3541;53.230;10.518;2023-08-07T15:38:09;17.20;99.90
7002;DHT22;3541;53.230;10.518;2023-08-07T15:40:37;17.20;99.90
7002;DHT22;3541;53.230;10.518;2023-08-07T15:43:05;17.10;99.90
7002;DHT22;3541;53.230;10.518;2023-08-07T15:45:31;17.10;99.90